Latest Weather Observations for Swan Hill

IDN60801

Issued at 9:52 pm EST Wednesday 12 August 2020 (issued every 10 minutes, with the page automatically refreshed every 10 minutes)

About weather observations | Map of weather stations | Latest weather observations for NSW | Other Formats
Station Details ID: 077094 Name: SWAN HILL AERODROME Lat: -35.38 Lon: 143.54 Height: 71.0 m
Data from the previous 72 hours. | See also: Recent months at Swan Hill
Date/Time
EST
Temp
°C
App
Temp
°C
Dew
Point
°C
Rel
Hum
%
Delta-T
°C
Wind Press
QNH
hPa
Press
MSL
hPa
Rain since
9am
mm
Dir  Spd
km/h
Gust
km/h
Spd
kts
Gust
kts
12/09:30pm 10.4 8.6 9.5 94 0.5 NW 9 11 5 6 1009.7 1009.8 0.0
12/09:00pm 11.5 10.4 10.1 91 0.7 W 6 7 3 4 1009.5 1009.6 0.0
12/08:30pm 12.6 11.6 11.0 90 0.8 W 7 9 4 5 1009.2 1009.3 0.0
12/08:00pm 12.8 11.9 10.7 87 1.1 NNE 6 7 3 4 1008.8 1008.9 0.0
12/07:30pm 12.9 11.4 10.4 85 1.3 NNE 9 11 5 6 1008.4 1008.5 0.0
12/07:00pm 13.1 12.0 9.9 81 1.7 NNE 6 7 3 4 1008.2 1008.3 0.0
12/06:30pm 14.2 12.3 10.6 79 1.9 NNE 11 13 6 7 1007.6 1007.7 0.0
12/06:00pm 14.3 12.7 10.1 76 2.2 NE 9 13 5 7 1007.2 1007.3 0.0
12/05:30pm 15.4 13.1 10.4 72 2.6 NE 13 17 7 9 1006.9 1007.0 0.0
12/05:00pm 17.1 13.9 10.0 63 3.8 NE 17 24 9 13 1006.6 1006.6 0.0
12/04:30pm 17.2 14.4 9.9 62 3.9 NNE 15 19 8 10 1006.6 1006.6 0.0
12/04:00pm 16.7 14.3 9.9 64 3.6 NNE 13 19 7 10 1006.8 1006.9 0.0
12/03:30pm 16.7 13.5 10.1 65 3.5 N 17 24 9 13 1007.1 1007.2 0.0
12/03:00pm 17.0 13.8 9.9 63 3.8 N 17 24 9 13 1007.2 1007.3 0.0
12/02:30pm 17.1 13.7 9.3 60 4.1 N 17 20 9 11 1007.2 1007.3 0.0
12/02:00pm 16.5 13.1 9.2 62 3.8 N 17 26 9 14 1007.1 1007.2 0.0
12/01:30pm 17.0 13.1 9.4 61 4.0 N 20 30 11 16 1007.5 1007.6 0.0
12/01:00pm 15.8 12.6 10.1 69 3.0 N 17 22 9 12 1007.9 1008.0 0.0
12/12:30pm 15.3 12.1 9.9 70 2.8 NNE 17 24 9 13 1008.2 1008.3 0.0
12/12:00pm 16.2 13.2 10.5 69 3.0 N 17 24 9 13 1008.6 1008.7 0.0
12/11:30am 15.7 12.3 10.5 71 2.8 N 19 28 10 15 1009.1 1009.2 0.0
12/11:00am 14.9 11.3 10.5 75 2.3 N 20 32 11 17 1009.5 1009.6 0.0
12/10:30am 13.9 10.6 10.9 82 1.6 N 19 26 10 14 1009.7 1009.8 0.0
12/10:00am 13.1 10.2 11.0 87 1.1 NNE 17 20 9 11 1009.9 1010.0 0.0
12/09:30am 11.2 7.6 10.0 92 0.6 NNE 19 24 10 13 1010.2 1010.3 0.0
12/09:00am 10.7 7.2 10.2 97 0.3 NE 19 24 10 13 1010.3 1010.4 1.8
12/08:30am 9.9 6.3 9.8 99 0.1 NE 19 24 10 13 1010.4 1010.5 1.8
12/08:00am 9.3 5.9 9.3 100 0.0 NE 17 20 9 11 1010.2 1010.3 1.8
12/07:30am 9.1 5.7 9.1 100 0.0 NE 17 24 9 13 1010.2 1010.3 1.8
12/07:00am 8.7 5.9 8.6 99 0.0 NE 13 19 7 10 1010.1 1010.2 1.8
12/06:30am 9.1 6.0 9.0 99 0.0 NE 15 19 8 10 1010.2 1010.3 1.8
12/06:00am 9.6 6.7 9.5 99 0.0 NNE 15 20 8 11 1010.2 1010.3 1.8
12/05:30am 9.9 6.7 9.9 100 0.0 NE 17 22 9 12 1010.3 1010.4 1.8
12/05:00am 9.8 7.3 9.8 100 0.0 NE 13 17 7 9 1010.4 1010.5 1.8
12/04:30am 9.9 7.5 9.9 100 0.0 NE 13 17 7 9 1010.3 1010.4 1.6
12/04:00am 10.0 7.2 10.0 100 0.0 NE 15 19 8 10 1010.4 1010.5 1.6
12/03:30am 9.9 7.5 9.9 100 0.0 NE 13 17 7 9 1010.6 1010.7 1.6
12/03:00am 9.9 7.4 9.8 99 0.1 NE 13 15 7 8 1010.8 1010.9 1.6
12/02:30am 10.2 7.0 10.1 99 0.1 NNE 17 20 9 11 1011.2 1011.3 1.4
12/02:00am 10.2 7.8 10.1 99 0.1 NE 13 17 7 9 1011.6 1011.7 1.0
12/01:30am 10.3 8.2 9.7 96 0.3 NNE 11 15 6 8 1011.8 1011.9 0.8
12/01:00am 10.5 8.0 9.6 94 0.5 NNE 13 19 7 10 1011.9 1012.0 0.6
12/12:30am 10.8 7.4 9.2 90 0.8 NNE 17 24 9 13 1012.1 1012.2 0.2
12/12:00am 11.1 7.3 9.2 88 1.0 NNE 19 24 10 13 1012.4 1012.5 0.0
 
Date/Time
EST
Temp
°C
App
Temp
°C
Dew
Point
°C
Rel
Hum
%
Delta-T
°C
Wind Press
QNH
hPa
Press
MSL
hPa
Rain since
9am
mm
Dir  Spd
km/h
Gust
km/h
Spd
kts
Gust
kts
11/11:30pm 11.1 7.3 9.2 88 1.0 NNE 19 26 10 14 1012.4 1012.5 0.0
11/11:00pm 11.3 7.5 9.2 87 1.1 NNE 19 26 10 14 1012.8 1012.9 0.0
11/10:30pm 11.2 7.4 8.9 86 1.1 NNE 19 22 10 12 1013.1 1013.2 0.0
11/10:00pm 11.0 7.1 8.8 86 1.1 NE 19 24 10 13 1013.1 1013.2 0.0
11/09:30pm 11.5 7.5 9.1 85 1.2 NNE 20 26 11 14 1013.5 1013.6 0.0
11/09:00pm 11.3 7.5 9.2 87 1.1 NE 19 24 10 13 1013.4 1013.5 0.0
11/08:30pm 11.1 7.6 8.8 86 1.1 NE 17 22 9 12 1013.0 1013.1 0.0
11/08:00pm 11.4 7.3 8.8 84 1.3 NE 20 26 11 14 1013.2 1013.3 0.0
11/07:30pm 11.5 7.4 8.7 83 1.4 NE 20 24 11 13 1013.5 1013.6 0.0
11/07:00pm 11.4 7.8 8.4 82 1.5 NE 17 22 9 12 1013.4 1013.5 0.0
11/06:30pm 11.5 7.5 8.4 81 1.5 NE 19 22 10 12 1013.4 1013.5 0.0
11/06:00pm 11.5 7.8 8.0 79 1.7 NE 17 26 9 14 1013.1 1013.2 0.0
11/05:30pm 12.0 7.7 7.9 76 2.0 ENE 20 28 11 15 1012.7 1012.8 0.0
11/05:00pm 12.3 7.6 7.6 73 2.3 NE 22 32 12 17 1012.7 1012.8 0.0
11/04:30pm 12.9 8.2 7.8 71 2.5 NE 22 32 12 17 1012.8 1012.9 0.0
11/04:00pm 12.7 8.5 7.6 71 2.5 NE 19 26 10 14 1013.1 1013.2 0.0
11/03:30pm 12.4 8.1 7.1 70 2.6 ENE 19 26 10 14 1013.2 1013.3 0.0
11/03:00pm 12.2 8.3 7.1 71 2.5 NE 17 22 9 12 1013.7 1013.8 0.0
11/02:30pm 12.1 8.1 6.6 69 2.6 NE 17 24 9 13 1014.0 1014.1 0.0
11/02:00pm 12.1 7.4 6.2 67 2.8 NE 20 30 11 16 1014.5 1014.6 0.0
11/01:30pm 12.2 7.2 6.3 67 2.8 NE 22 30 12 16 1014.7 1014.8 0.0
11/01:00pm 12.6 7.1 6.0 64 3.1 NE 24 30 13 16 1015.3 1015.4 0.0
11/12:30pm 12.0 7.3 6.1 67 2.8 NE 20 30 11 16 1016.0 1016.1 0.0
11/12:00pm 11.4 6.7 5.9 69 2.6 NE 20 28 11 15 1016.8 1016.9 0.0
11/11:30am 10.7 5.9 5.7 71 2.3 NE 20 26 11 14 1017.4 1017.5 0.0
11/11:00am 10.9 6.2 6.1 72 2.2 NNE 20 28 11 15 1017.9 1018.0 0.0
11/10:30am 10.0 5.2 5.6 74 2.0 NE 20 26 11 14 1018.0 1018.1 0.0
11/10:00am 9.8 5.0 5.4 74 2.0 NNE 20 28 11 15 1018.3 1018.3 0.0
11/09:30am 9.8 5.5 5.2 73 2.1 NNE 17 22 9 12 1018.4 1018.4 0.0
11/09:00am 9.7 5.8 5.5 75 1.9 NNE 15 22 8 12 1018.6 1018.7 0.0
11/08:30am 7.7 3.8 5.3 85 1.1 NNE 15 22 8 12 1018.3 1018.3 0.0
11/08:00am 7.0 2.7 5.2 88 0.8 NE 17 22 9 12 1017.9 1018.0 0.0
11/07:30am 6.4 2.4 4.7 89 0.7 NE 15 19 8 10 1017.8 1017.9 0.0
11/07:00am 6.3 2.6 4.6 89 0.7 NE 13 15 7 8 1018.4 1018.4 0.0
11/06:30am 6.2 2.5 4.7 90 0.7 NE 13 15 7 8 1018.3 1018.3 0.0
11/06:00am 5.7 2.3 4.2 90 0.6 NE 11 13 6 7 1018.4 1018.4 0.0
11/05:30am 5.5 1.7 4.0 90 0.6 NE 13 15 7 8 1017.7 1017.8 0.0
11/05:00am 5.4 1.6 3.9 90 0.6 NE 13 15 7 8 1017.7 1017.8 0.0
11/04:30am 5.6 1.8 4.1 90 0.6 NE 13 15 7 8 1017.8 1017.9 0.0
11/04:00am 5.5 2.5 4.2 91 0.6 ENE 9 13 5 7 1018.3 1018.3 0.0
11/03:30am 4.8 2.1 3.5 91 0.5 ENE 7 9 4 5 1018.5 1018.6 0.0
11/03:00am 4.6 1.4 2.9 89 0.7 ENE 9 9 5 5 1018.7 1018.8 0.0
11/02:30am 5.0 1.8 3.0 87 0.8 ENE 9 11 5 6 1019.1 1019.2 0.0
11/02:00am 5.5 2.4 3.5 87 0.8 ENE 9 11 5 6 1019.0 1019.1 0.0
11/01:30am 5.2 2.1 3.5 89 0.7 ENE 9 11 5 6 1019.1 1019.2 0.0
11/01:00am 5.0 1.9 3.7 91 0.5 ENE 9 11 5 6 1019.3 1019.4 0.0
11/12:30am 5.0 1.9 3.7 91 0.5 ENE 9 11 5 6 1019.5 1019.6 0.0
11/12:00am 4.8 1.7 3.8 93 0.4 ENE 9 11 5 6 1019.6 1019.7 0.0
 
Date/Time
EST
Temp
°C
App
Temp
°C
Dew
Point
°C
Rel
Hum
%
Delta-T
°C
Wind Press
QNH
hPa
Press
MSL
hPa
Rain since
9am
mm
Dir  Spd
km/h
Gust
km/h
Spd
kts
Gust
kts
10/11:30pm 4.8 1.8 3.9 94 0.4 ENE 9 11 5 6 1019.4 1019.5 0.0
10/11:00pm 4.5 1.4 3.6 94 0.4 NE 9 11 5 6 1019.7 1019.8 0.0
10/10:30pm 4.8 2.1 3.8 93 0.4 NE 7 9 4 5 1019.9 1020.0 0.0
10/10:00pm 5.4 2.8 4.4 93 0.4 NE 7 9 4 5 1019.9 1020.0 0.0
10/09:30pm 5.5 3.1 4.3 92 0.5 NE 6 7 3 4 1019.9 1020.0 0.0
10/09:00pm 5.8 3.2 4.3 90 0.6 NE 7 9 4 5 1020.0 1020.1 0.0
10/08:30pm 6.7 3.8 4.7 87 0.9 NNE 9 11 5 6 1020.0 1020.1 0.0
10/08:00pm 7.2 5.6 4.7 84 1.1 NNE 2 7 1 4 1020.0 1020.1 0.0
10/07:30pm 8.5 7.4 4.9 78 1.6 CALM 0 0 0 0 1019.9 1020.0 0.0
10/07:00pm 9.7 8.5 4.5 70 2.3 CALM 0 0 0 0 1019.8 1019.9 0.0
10/06:30pm 11.3 10.1 4.5 63 3.1 CALM 0 0 0 0 1019.5 1019.6 0.0
10/06:00pm 12.9 11.8 5.1 59 3.6 CALM 0 0 0 0 1019.3 1019.4 0.0
10/05:30pm 15.1 12.7 4.5 49 4.9 NNE 6 7 3 4 1019.1 1019.2 0.0
10/05:00pm 16.1 13.5 4.2 45 5.6 NNE 7 11 4 6 1018.8 1018.9 0.0
10/04:30pm 16.3 13.4 4.4 45 5.6 NNE 9 15 5 8 1018.7 1018.8 0.0
10/04:00pm 16.7 13.8 4.4 44 5.8 NE 9 15 5 8 1018.8 1018.9 0.0
10/03:30pm 16.8 13.5 4.5 44 5.8 NNE 11 15 6 8 1019.1 1019.2 0.0
10/03:00pm 17.1 14.8 4.8 44 5.9 N 6 11 3 6 1019.6 1019.7 0.0
10/02:30pm 16.7 13.8 4.4 44 5.8 N 9 17 5 9 1019.9 1020.0 0.0
10/02:00pm 16.8 14.4 5.4 47 5.5 NE 7 13 4 7 1020.2 1020.3 0.0
10/01:30pm 16.1 13.4 5.4 49 5.1 NE 9 15 5 8 1020.4 1020.5 0.0
10/01:00pm 15.8 13.2 6.0 52 4.7 NE 9 15 5 8 1021.0 1021.1 0.0
10/12:30pm 15.5 12.4 5.4 51 4.8 NE 11 17 6 9 1021.4 1021.5 0.0
10/12:00pm 14.8 12.4 5.3 53 4.5 NNE 7 15 4 8 1021.7 1021.8 0.0
10/11:30am 13.8 11.8 6.4 61 3.6 ENE 6 11 3 6 1022.0 1022.1 0.0
10/11:00am 12.2 9.7 6.5 68 2.7 E 9 13 5 7 1022.0 1022.1 0.0
10/10:30am 10.4 7.4 6.2 75 2.0 SE 11 17 6 9 1022.1 1022.2 0.0
10/10:00am 9.6 6.3 6.5 81 1.4 SE 13 20 7 11 1022.1 1022.2 0.0
10/09:30am 8.2 4.6 6.7 90 0.7 ESE 15 20 8 11 1022.2 1022.3 0.0
10/09:00am 6.5 3.5 6.2 98 0.1 SE 11 15 6 8 1022.2 1022.3 0.2
10/08:30am 5.0 2.5 4.9 99 0.0 SSE 7 9 4 5 1021.9 1022.0 0.2
10/08:00am 3.4 0.2 3.3 99 0.0 SE 9 13 5 7 1021.6 1021.7 0.2
10/07:30am 2.4 -0.6 2.3 99 0.0 SSE 7 11 4 6 1021.2 1021.3 0.2
10/07:00am 2.2 -0.8 2.1 99 0.0 SSE 7 9 4 5 1020.8 1020.9 0.2
10/06:30am 2.3 -1.0 2.2 99 0.0 SSE 9 11 5 6 1020.5 1020.6 0.2
10/06:00am 2.6 -0.7 2.3 98 0.1 SSE 9 11 5 6 1020.2 1020.3 0.2
10/05:30am 2.7 -0.2 2.4 98 0.1 S 7 9 4 5 1020.1 1020.2 0.2
10/05:00am 3.3 0.5 2.9 97 0.2 S 7 9 4 5 1020.0 1020.1 0.2
10/04:30am 3.7 0.5 3.3 97 0.2 S 9 11 5 6 1020.1 1020.2 0.2
10/04:00am 3.6 0.8 3.2 97 0.2 SSW 7 11 4 6 1019.7 1019.8 0.2
10/03:30am 4.2 0.7 3.6 96 0.2 SSE 11 13 6 7 1019.5 1019.6 0.2
10/03:00am 4.4 1.3 3.7 95 0.3 S 9 11 5 6 1019.5 1019.6 0.2
10/02:30am 4.7 1.7 4.0 95 0.3 S 9 13 5 7 1019.5 1019.6 0.0
10/02:00am 5.0 2.0 4.3 95 0.3 SSW 9 13 5 7 1019.7 1019.8 0.0
10/01:30am 5.3 2.4 4.6 95 0.3 SSW 9 13 5 7 1019.5 1019.6 0.0
10/01:00am 5.0 2.0 4.1 94 0.4 SSW 9 11 5 6 1019.3 1019.4 0.0
10/12:30am 5.1 2.1 4.2 94 0.4 SSW 9 11 5 6 1019.0 1019.1 0.0
10/12:00am 4.6 2.4 3.4 92 0.5 SSW 4 9 2 5 1019.0 1019.1 0.0
 
Date/Time
EST
Temp
°C
App
Temp
°C
Dew
Point
°C
Rel
Hum
%
Delta-T
°C
Wind Press
QNH
hPa
Press
MSL
hPa
Rain since
9am
mm
Dir  Spd
km/h
Gust
km/h
Spd
kts
Gust
kts
09/11:30pm 5.8 3.4 4.4 91 0.6 S 6 9 3 5 1019.0 1019.1 0.0
09/11:00pm 6.7 3.9 5.3 91 0.6 S 9 11 5 6 1019.0 1019.1 0.0
09/10:30pm 7.2 4.5 5.5 89 0.8 S 9 11 5 6 1019.0 1019.1 0.0
09/10:00pm 7.8 5.5 5.8 87 0.9 S 7 13 4 7 1019.1 1019.2 0.0

Other formats

Comma delimited format used in spreadsheet applications
http://www.bom.gov.au/fwo/IDN60801/IDN60801.94843.axf

JavaScript Object Notation format (JSON) in row-major order
http://www.bom.gov.au/fwo/IDN60801/IDN60801.94843.json

Data quality

Most of these data are generated automatically and are frequently updated. Quality checks on data are not normally performed. It is possible for incorrect values to appear. Refer to information at About Latest Weather Observations and please check the disclaimer before using these data.